cliquez pour ajouter le site Runraid à vos favoris  English version (google)  Retour à l'accueil Ecrire à l'auteur du site Runraid : Michel Jourdan



Les prochaines courses


Les derniers résultats

cliquez pour visualiser la page complète relatant la chronologie des éruptions du Piton de la Fournaise
éruptions Piton de la Fournaise


Ile de La Réunion

 Diagonale des Fous 

Nouveautés du site

Ecrire au créateur du site : Michel Jourdan
Contact


2017-09-23 - Trail Urbain de Saint-Denis

Pour consulter le palmarès d'un coureur, un clic sur son nom !

Vous avez des remarques, corrections, ... sur ces résultats , un clic sur --> pour me transmettre toute information concernant les classements


Trail Urbain de Saint-Denis - 2017 : classement des 325 finishers
Place Nom Temps Cat. Club Sexe Clt/cat.
Place Nom Temps Cat. Club Sexe Clt/cat.
1 CADET Jean Marie 01:28:58 V1M AC ENTENTE M 273
2 SANION Siurfa 01:29:00 SEM M 1 SEM 661
3 HENZE Frederic 01:32:34 V1M M 2 V1M 666
4 DIJOUX JEAN BERNARD 01:33:14 V1M AVAD M 3 V1M 35
5 HOAREAU JEAN LAURENT 01:33:56 SEM M 2 SEM 240
6 PEPIN Jerome 01:34:07 SEM M 3 SEM 308
7 GANOFSKY THIERRY 01:34:43 V1M M 4 V1M 237
8 MOUSSELET Loic 01:34:46 SEM M 4 SEM 113
9 CHARTIER JACQUES ALBAN 01:39:04 SEM RUN ODYSSEA M 5 SEM 108
10 NOEL alain 01:39:31 SEM M 6 SEM 34
11 SAMSORA Patrick 01:39:55 SEM M 7 SEM 674
12 IMBROSCIANO Yannick 01:40:55 SEM M 8 SEM 667
13 ESPARON Richeville 01:41:58 V2M OUESTRAIL M 1 V2M 736
14 DAMY Erwan 01:42:22 SEM M 9 SEM 173
15 SAUTRON Cedric 01:43:27 SEM M 10 SEM 727
16 GRONDIN Mickael 01:43:27 SEM M 11 SEM 701
17 SAUTRON JULIEN 01:43:36 SEM DENIV M 12 SEM 145
18 FONTANA ARNAUD 01:44:00 V2M M 2 V2M 212
19 PICARD ERICK 01:44:44 V2M RDB M 3 V2M 55
20 EYQUEM BOTTARD guillaume 01:45:58 SEM M 13 SEM 70
21 PAYET Antoine 01:46:01 SEM M 14 SEM 739
22 DRASIN Pascal 01:46:11 SEM M 15 SEM 260
23 GOMARD John 01:46:35 SEM M 16 SEM 699
24 JUDIC PIERRE 01:46:37 SEM ACSP M 17 SEM 127
25 LAURENT Maxime 01:46:57 SEM RUN ODYSSEA M 18 SEM 125
26 MOREL Paul Emile 01:47:00 V1M TCSA M 5 V1M 690
27 BOITHIAS Amyas 01:47:04 SEM M 19 SEM 8
28 CALTRET JOHNNY 01:47:54 V2M CTBP M 4 V2M 246
29 POTIe Benjamin 01:48:18 SEM M 20 SEM 208
30 CLAIN Ludovic 01:48:25 SEM M 21 SEM 688
31 ZITTE RAPHAEL 01:48:54 SEM CSSDA M 22 SEM 185
32 GALTIER ERIC 01:48:56 V1M M 6 V1M 193
33 GRONDIN Ludovic 01:49:12 SEM M 23 SEM 285
34 LAURENT Jean Mario 01:49:18 V2M M 5 V2M 254
35 ISSACK Yahya 01:49:45 SEM M 24 SEM 287
36 MOISAN ARNAUD 01:49:45 SEM DENIV M 25 SEM 62
37 JOBERT Christian 01:49:51 V3M M 1 V3M 179
38 DEBAIZE Anatole 01:51:35 SEM M 26 SEM 183
39 ETHEVE Joel 01:51:45 V1M M 7 V1M 628
40 BARRET Anselme 01:51:54 V1M M 8 V1M 267
41 CLAIN Nicolas 01:51:58 SEM M 27 SEM 710
42 RAVATE Irfane 01:52:07 SEM M 28 SEM 697
43 ROBERT Jean noe 01:52:17 SEM M 29 SEM 175
44 GARA JEAN DENIS 01:52:41 V1M RCSD M 9 V1M 111
45 BERCON Christophe 01:52:42 V1M M 10 V1M 735
46 MULOT David 01:52:55 SEM M 30 SEM 291
47 SAUTRON bernard 01:53:08 V1M M 11 V1M 20
48 DUPONT Julien 01:53:54 SEM M 31 SEM 165
49 AGENOR Florent 01:54:21 ESM M 1 ESM 136
50 CLAUDIN Michael 01:55:09 SEM M 32 SEM 714
51 GENESTE DANIEL 01:55:13 V1M DENIV M 12 V1M 57
52 PICARD Vincent 01:55:25 SEM M 33 SEM 86
53 SAMBENOUN MARCELIN 01:55:50 V2M M 6 V2M 233
54 RUBLON Pierre 01:55:50 V1M M 13 V1M 7
55 MOUSSA FAYYAZ 01:55:55 SEM M 34 SEM 84
56 MELOBOSIS Gilbert 01:55:56 V2M M 7 V2M 154
57 MAZUe Romain 01:55:58 SEM M 35 SEM 131
58 MAURICE CHRISTOPHE 01:56:13 SEM M 36 SEM 248
59 BANDRABUR Coline 01:56:27 SEF F 1ere F 178
60 NOUYRIGAT Pierre 01:56:40 SEM M 37 SEM 670
61 CHEVALIER Bertrand 01:56:50 V1M M 14 V1M 259
62 PATCHE sully 01:56:57 SEM M 38 SEM 141
63 STAAL SABINE 01:57:07 SEF DENIV F 2eme F 101
64 BLARD OLIVIER 01:57:08 V1M M 15 V1M 100
65 HOAREAU Jean Jacques 01:57:33 V2M M 8 V2M 627
66 BELLEAU Stephane 01:57:38 V1M M 16 V1M 265
67 BEGUE janick 01:57:47 V1M M 17 V1M 161
68 OODOOMANSAIB KEN 01:57:48 SEM M 39 SEM 194
69 PAJANIANDY Jean Rene 01:57:56 V2M M 9 V2M 618
70 DELVOYE STEPHANIE 01:57:59 V1F RUN ODYSSEA F 3 F - 1 V1F 223
71 HOAREAU CEDRIC 01:58:11 V1M M 18 V1M 239
72 TREPORT Thierry 01:58:23 V1M M 19 V1M 139
73 ROBERT Jerome 01:58:25 V1M M 20 V1M 634
74 DELIRON Emmanuel 01:58:25 SEM M 40 SEM 181
75 CONVERT Cyril 01:58:32 SEM M 41 SEM 266
76 TISNE CHRISTOPHE 01:58:48 SEM M 42 SEM 253
77 FIANU Adrian 01:59:04 V1M M 21 V1M 305
78 LOMBARDOT Christophe 01:59:12 SEM M 43 SEM 663
79 LEROUGE Philippe 01:59:13 V2M M 10 V2M 662
80 LAUDREN Gwanael 01:59:49 SEM M 44 SEM 633
81 POUDROUX GUILLAUME 02:00:26 V1M M 22 V1M 228
82 RAMAKISTIN Kenny 02:01:07 SEM M 45 SEM 162
83 DESCORSIER ALAIN 02:01:09 V2M ORT M 11 V2M 72
84 CHEVALIER frederic 02:01:14 V1M M 23 V1M 201
85 BERTHELOT franck 02:01:29 V1M M 24 V1M 130
86 DOUARIN Frederic 02:01:40 V1M M 25 V1M 132
87 BOURICE Wilfrid 02:01:51 SEM M 46 SEM 713
88 DEFOSSE Christophe 02:02:07 V1M M 26 V1M 134
89 MITHRIDATE Elodie 02:02:10 SEF F 4 F - 3 SEF 728
90 VANHELLE simon 02:02:11 SEM M 47 SEM 106
91 FLORQUIN sophie 02:02:26 SEF F 5 F - 4 SEF 717
92 HOAREAU GUY JOEL 02:02:30 V1M M 27 V1M 78
93 RIVIERE Lionel 02:02:31 SEM M 48 SEM 300
94 JOLY CYRIL 02:02:41 V1M M 28 V1M 18
95 CHIEFARE EMMANUEL 02:02:44 SEM M 49 SEM 167
96 RENAMBATZ HARRY 02:03:04 V2M M 12 V2M 71
97 DEMERY FRANCK 02:03:05 V1M M 29 V1M 3
98 GERBELOT Sophie 02:03:27 SEF F 6 F - 5 SEF 104
99 LAW TCHI KUN JEAN BERNARD 02:03:58 V2M CSSDA M 13 V2M 11
100 HOAREAU MYRIELLE 02:03:58 V2F F 7 F - 1 V2F 249
101 DEPIGNY Yves 02:04:00 V1M M 30 V1M 103
102 KISHI ANTHONY 02:04:01 SEM M 50 SEM 213
103 PICQUE Bertrand 02:04:03 SEM M 51 SEM 73
104 PICARD THIERRY 02:04:05 SEM LA CHALOUP M 52 SEM 63
105 PARASSOURAMIN LATCHI PASCAL 02:04:17 V1M AC ENTENTE M 31 V1M 29
106 MADANI LAURENT 02:04:40 V1M M 32 V1M 176
107 BONIFACE TOUSSAINT JEAN PAUL 02:04:40 V1M M 33 V1M 250
108 LEGROS VALERIE 02:04:40 SEF TPC F 8 F - 6 SEF 124
109 DE LAUNAY Eric 02:04:50 SEM M 53 SEM 48
110 LALA Salma 02:04:52 SEF F 9 F - 7 SEF 700
111 CARDINAEL Guillaume 02:05:21 SEM M 54 SEM 157
112 ASSON olivier 02:06:01 SEM M 55 SEM 174
113 PUCHEU Renaud 02:06:02 SEM RUN ODYSSEA M 56 SEM 269
114 LOOSLI Stephan 02:06:07 V2M M 14 V2M 59
115 JULIENNE Richelet 02:06:13 V2M M 15 V2M 146
116 RICHARD william 02:06:57 V1M M 34 V1M 120
117 AMPLE Laurent 02:07:41 V1M M 35 V1M 30
118 SIRA fabrice 02:07:44 SEM M 57 SEM 90
119 DEVOUGE Victoria 02:07:48 ESF F 10 F - 1 ESF 636
120 BAYON NICOLAS 02:07:49 V1M M 36 V1M 214
121 ARNAUD Boris 02:07:60 SEM M 58 SEM 664
122 BRENNUS david 02:08:02 V1M M 37 V1M 61
123 LAURENT gilbert 02:08:04 V2M M 16 V2M 196
124 HOAREAU LAURENT 02:08:29 V1M CAPP M 38 V1M 191
125 KEMPF Guillaume 02:08:56 SEM M 59 SEM 704
126 LAMBERT Alexandre 02:09:05 SEM M 60 SEM 306
127 GAUDIEUX Stephane 02:09:18 SEM M 61 SEM 89
128 PAYET Jean Jacques 02:10:03 V1M M 39 V1M 115
129 MENEUX Sebastien 02:10:03 SEM M 62 SEM 177
130 BERFROI Willy 02:10:12 V1M M 40 V1M 656
131 GARCIA LUCAS 02:10:35 SEM KINEPOD974 M 63 SEM 12
132 TUSSET AMELIE 02:10:38 SEF RUN ODYSSEA F 11 F - 8 SEF 126
133 LALLEMAND Jean Raymond 02:10:39 SEM M 64 SEM 637
134 GUILLOU matthieu 02:10:56 V1M M 41 V1M 41
135 DALLY Jean Fabrice 02:11:07 V1M M 42 V1M 42
136 GILLY Frederic 02:11:14 SEM M 65 SEM 150
137 DELAHOGUE Bernard 02:11:34 V2M M 17 V2M 309
138 GARDENAT Regis 02:11:35 V2M M 18 V2M 92
139 PAUSe Paul Andre 02:11:56 V2M M 19 V2M 612
140 DOAT STEPHANE 02:12:04 V2M M 20 V2M 251
141 BITROU GAILLARD ANNE 02:12:11 V1F F 12 F - 2 V1F 189
142 POLARD ROUSSEL Caroline 02:12:11 SEF F 13 F - 9 SEF 302
143 LON MON POY ERIC 02:12:14 V1M M 43 V1M 252
144 FLOUVAT SEBASTIEN 02:12:19 SEM M 66 SEM 184
145 BELANGER MATHIAS 02:12:24 SEM CTBP M 67 SEM 25
146 FILAUMART Patrick 02:12:30 V2M M 21 V2M 99
147 ROUVIERE Daniel 02:12:39 V3M M 2 V3M 689
148 DALERY laurent 02:12:50 SEM M 68 SEM 135
149 DIOTEL Nicolas 02:13:08 SEM M 69 SEM 172
150 DELAUNAY Mickael 02:13:08 SEM M 70 SEM 278
151 GRONDIN Jacki 02:13:10 V2M M 22 V2M 148
152 SAUTRON Anthony 02:13:19 SEM M 71 SEM 632
153 JUNOT Jean Christophe 02:13:20 V1M M 44 V1M 51
154 THEPAUT Franck 02:13:22 V1M M 45 V1M 85
155 PIOT Murielle 02:13:26 V2F F 14 F - 2 V2F 722
156 DOLPHIN LAURENT 02:13:27 SEM M 72 SEM 153
157 PROT MYRIAM 02:13:46 V2F F 15 F - 3 V2F 49
158 DIVOL MARIE JUDITH 02:13:47 V1F F 16 F - 3 V1F 36
159 DALLEAU Wilfried 02:13:48 SEM M 73 SEM 138
160 DENOU Antoine 02:13:55 SEM M 74 SEM 263
161 AZNAR christian 02:14:33 V1M M 46 V1M 205
162 ELLAMA Nicolas 02:14:40 SEM M 75 SEM 283
163 HOAREAU Jean Jacky 02:14:41 V2M M 23 V2M 112
164 LAHAYE Loic 02:14:42 V2M M 24 V2M 66
165 GRONDIN Jimmy 02:14:44 SEM M 76 SEM 654
166 HARDY PASCAL 02:14:47 V2M M 25 V2M 119
167 VANWALSCAPPEL Frederic 02:14:56 SEM M 77 SEM 622
168 LE GUILLOU Clement 02:15:00 SEM M 78 SEM 13
169 ARAUX ALAIN 02:15:20 V2M M 26 V2M 192
170 TEYSSEDRE Margaux 02:15:21 SEF F 17 F - 10 SEF 210
171 FURIA jean noel 02:15:37 V1M M 47 V1M 109
172 KLOTZ ludovic 02:16:04 V1M M 48 V1M 28
173 BAZIN Caroline 02:16:05 SEF F 18 F - 11 SEF 19
174 BOUCHER Fabrice 02:16:30 V1M M 49 V1M 114
175 INGAR YAZID 02:17:15 V1M M 50 V1M 5
176 LAGRANGE JEAN MICHEL 02:17:18 V1M M 51 V1M 220
177 FAU HUCHA Oerman 02:17:19 SEM DENIV M 79 SEM 640
178 PERMACOUDIN Johan 02:17:22 SEM M 80 SEM 671
179 POTHIN ALAIN 02:17:31 V1M M 52 V1M 242
180 POUPPEVILLE CEDRIC 02:17:31 SEM M 81 SEM 198
181 TOUSSAINT Jean Max 02:18:30 V1M M 53 V1M 625
182 DUBART Frederic 02:18:39 V1M M 54 V1M 281
183 GRONDIN Fabien Jean Francois 02:18:53 V1M M 55 V1M 82
184 CERVEAU SANDRA CLAUDETT 02:19:12 V1F DENIV F 19 F - 4 V1F 69
185 LE KHANH 02:19:40 V1M ACSP M 56 V1M 199
186 LAU YAM MICHEL 02:19:40 V3M M 3 V3M 218
187 FARGEOT Julien 02:19:43 SEM M 82 SEM 626
188 CLAIN Clement 02:19:44 V2M M 27 V2M 149
189 DUCHEMANN Christian 02:19:45 V2M M 28 V2M 156
190 BOUTET SUZETTE 02:19:56 V2F DENIV F 20 F - 4 V2F 180
191 PATRIA Julien 02:20:07 SEM M 83 SEM 611
192 CHANE TO SEBASTIEN 02:21:21 SEM RCSD M 84 SEM 206
193 SAKTINI malik 02:21:38 V2M M 29 V2M 6
194 BRASSAMIN Mahefanirina 02:21:44 SEF F 21 F - 12 SEF 658
195 RAYEROUX Nicolas 02:22:11 V3M M 4 V3M 293
196 IDLAS Claire Anne Agathe 02:22:12 SEF F 22 F - 13 SEF 693
197 POTIEZ Aurelia 02:22:32 SEF F 23 F - 14 SEF 74
198 LEBOUCHER jean sebastien 02:23:33 V1M M 57 V1M 21
199 ELISABETH Jacquelin 02:23:56 V2M M 30 V2M 629
200 NIVAROSA Freddy 02:24:02 SEM M 85 SEM 698
201 POLLUX FREDERIC 02:24:13 SEM M 86 SEM 137
202 LE TENNIER SYLVIE 02:24:33 V2F CAPOSS F 24 F - 5 V2F 76
203 JOACHIM Sabrina 02:24:37 V1F F 25 F - 5 V1F 299
204 SOLON Jean Marie 02:24:41 V1M M 58 V1M 298
205 CASSAM Abdoulah 02:24:60 SEM M 87 SEM 288
206 BACHEL Bruno 02:25:12 V2M M 31 V2M 204
207 CHANE SEE CHU MARLENE 02:25:19 V3F CAPC F 26 F - 1 V3F 740
208 K/BIDI Joselito 02:25:19 V1M M 59 V1M 16
209 MACORAL Charles Henry 02:25:37 V1M M 60 V1M 94
210 DELATRE FRANCOIS 02:25:39 V2M ACM M 32 V2M 50
211 RIBECQ Sandra 02:25:44 V1F F 27 F - 6 V1F 96
212 RAMAYE Alexandre 02:25:46 JUM M 1 JUM 190
213 MARTIN Chloe 02:25:52 SEF F 28 F - 15 SEF 669
214 CROZET Marie Therese 02:25:57 SEF F 29 F - 16 SEF 258
215 MULOT Andre Claude 02:25:59 V2M M 33 V2M 95
216 SILOTIA Tony 02:26:09 SEM M 88 SEM 296
217 LE CARBOULLEC Stephane 02:26:10 V1M M 61 V1M 158
218 THOUENON Vincent 02:26:16 SEM M 89 SEM 301
219 COCHETEL Christian 02:26:26 V2M M 34 V2M 659
220 MARA Allan 02:26:36 SEM M 90 SEM 290
221 DUANT jackie 02:26:44 SEF F 30 F - 17 SEF 23
222 VANWALSCAPPEL Didier 02:26:50 SEM M 91 SEM 117
223 L'HELGOUALCH Romain 02:26:50 SEM M 92 SEM 83
224 DUPUPET PATRICE 02:26:52 V1M DENIV M 62 V1M 186
225 RIA Sylvain 02:26:56 SEM M 93 SEM 123
226 PAYET Jean Marc 02:27:47 V1M M 63 V1M 64
227 MAILLOT ADELINE 02:27:57 SEF RCSD F 31 F - 18 SEF 168
228 JAMET Arnaud 02:27:59 V1M M 64 V1M 43
229 RAMANAMBOHITRA MAMISOA 02:28:01 SEM M 94 SEM 170
230 HOARAU Christophe 02:28:06 V1M M 65 V1M 197
231 JOSEPH MYLENE 02:28:11 V2F CSSDA F 32 F - 6 V2F 200
232 GEA Bryan 02:28:14 ESM M 2 ESM 548
233 CONSTANS Christophe 02:28:48 V1M M 66 V1M 159
234 VICTORINE YANIS 02:28:49 V1M CSSDA M 67 V1M 209
235 GIRARD Regis 02:28:53 V2M M 35 V2M 107
236 VILLENDEUIL HUGUES 02:28:59 V2M M 36 V2M 182
237 DEJEAN FREDERIC NELSON 02:29:49 V1M M 68 V1M 227
238 HOUDARD Jean Marc 02:29:58 V3M M 5 V3M 58
239 POLEYA Jean Francois 02:30:11 V2M M 37 V2M 102
240 SANTUNE PHILIPPE 02:30:24 V1M M 69 V1M 140
241 BATAILLE JEAN LOU 02:30:60 V1M M 70 V1M 217
242 VIRGINIUS IRENE 02:31:10 V2M M 38 V2M 241
243 MOUNIAMA GREGORY 02:31:11 V1M M 71 V1M 222
244 VITY Jeremy 02:31:42 SEM M 95 SEM 67
245 MORIN Lydie 02:32:30 V1F CTBP F 33 F - 7 V1F 733
246 MORIN David 02:32:31 V1M CTBP M 72 V1M 734
247 TIBERE Jean Baptiste Hugues 02:32:31 V2M M 39 V2M 4
248 MARBAUD Joris 02:32:36 V1M M 73 V1M 261
249 MEILHAC Olivier 02:33:03 V1M M 74 V1M 723
250 ROCHE Martin 02:33:04 ESM M 3 ESM 219
251 CAZETTE Cedric 02:33:26 JUM M 2 JUM 275
252 SHAM PING CHEE carine annie 02:33:42 V1F F 34 F - 8 V1F 195
253 RIVIERE Jismy 02:33:58 V1M M 75 V1M 705
254 PASCAL philippe 02:34:06 V2M M 40 V2M 56
255 ICHANE Jean Luc 02:34:11 V3M M 6 V3M 639
256 MAUNIER Emmanuel 02:34:20 SEM M 96 SEM 155
257 ISART Fabrice 02:34:38 V1M M 76 V1M 60
258 VANWALSCAPPEL Fabrice 02:35:03 SEM M 97 SEM 128
259 LEBON Alexandre 02:36:02 V1M M 77 V1M 81
260 ROUGIER victor 02:36:18 SEM M 98 SEM 77
261 RINCE Viannette 02:36:36 SEF F 35 F - 19 SEF 121
262 LE MOUEL Raphael 02:36:38 SEM M 99 SEM 98
263 TANGATCHY Stephanie 02:36:59 SEF F 36 F - 20 SEF 129
264 BOULEVART jerome 02:38:07 SEM M 100 SEM 31
265 CHAVENT AGNES 02:38:09 SEF F 37 F - 21 SEF 169
266 LARUE Simon 02:39:10 SEM M 101 SEM 46
267 MONTGOBERT quentin 02:39:38 SEM M 102 SEM 44
268 MARTIN Quentin 02:39:44 ESM M 4 ESM 87
269 PICARD PAUL FLORENT 02:39:45 SEM M 103 SEM 116
270 GESQUIeRE Solene 02:39:48 SEF F 38 F - 22 SEF 163
271 WAZ Alexandra 02:39:52 ESF F 39 F - 2 ESF 88
272 SUTTER Camille 02:40:02 SEF F 40 F - 23 SEF 164
273 LEBARBENCHON Camille 02:40:03 SEM M 104 SEM 166
274 LALLEMAND AXEL 02:40:12 V4M CAPC M 1 V4M 244
275 GRONDIN Elodie 02:40:31 SEF F 41 F - 24 SEF 284
276 AMO Mathieu 02:40:42 SEM M 105 SEM 202
277 HOAREAU patrick fredo 02:40:54 V1M M 78 V1M 118
278 BRUNET Myriam 02:40:58 SEF F 42 F - 25 SEF 105
279 JEAN ETIENNE Sharif 02:41:07 SEM M 106 SEM 303
280 PICHARD Jerome 02:42:04 V1M M 79 V1M 32
281 RONDET Christophe 02:42:27 V1M M 80 V1M 152
282 HAMAIDE Vincent 02:42:40 SEM M 107 SEM 621
283 PLAZANET DAVID 02:45:41 V1M M 81 V1M 203
284 BOYER Marcel Felix 02:47:02 V1M M 82 V1M 122
285 LAURET CHARLES 02:47:30 SEM RCSD M 108 SEM 53
286 DALLELE Mimose 02:48:06 V3F F 43 F - 2 V3F 277
287 ALLAIN CECILE 02:48:18 V1F F 44 F - 9 V1F 245
288 MAZZOLA Clarisse 02:48:39 SEF F 45 F - 26 SEF 93
289 BEGUE Gregory 02:48:55 SEM M 109 SEM 75
290 ARAUX MICHEL 02:50:16 V3M M 7 V3M 160
291 LEBEAU Julien 02:50:34 V2M M 41 V2M 660
292 LANGEVIN Yves 02:50:55 V2M M 42 V2M 133
293 HERLIN Vincent 02:51:00 SEM M 110 SEM 40
294 HOARAU Paul Frederic 02:51:38 V2M M 43 V2M 33
295 MUSTUN Sabine 02:52:29 V1F F 46 F - 10 V1F 721
296 LEE SONG YIN Gino 02:52:57 V1M DENIV M 83 V1M 10
297 FERRERE Stephanie 02:53:48 V1F F 47 F - 11 V1F 262
298 CAMIAN Jean Francois 02:53:48 V1M M 84 V1M 207
299 MARSOL JULIEN 02:54:22 SEM M 111 SEM 26
300 MOURAMAN GOUINEDARAJEN 02:54:24 V1M M 85 V1M 45
301 TECHER Wendy 02:54:26 SEF F 48 F - 27 SEF 144
302 POSe Jonattan 02:55:21 SEM M 112 SEM 623
303 ETIENNE Jean Marc 02:56:56 V1M M 86 V1M 270
304 ROBERT Nicolas 02:57:34 SEM M 113 SEM 672
305 DALERY jose 02:58:15 V2M M 44 V2M 91
306 LARIVE SABRINA 02:59:32 V1F F 49 F - 12 V1F 147
307 LOUIS Patrick Benjamin 02:59:32 V2M M 45 V2M 657
308 VANDENESSE Karine 03:00:27 SEF F 50 F - 28 SEF 143
309 GERARDIN LIONEL 03:00:29 V2M M 46 V2M 221
310 HUET Lina 03:02:19 V1F F 51 F - 13 V1F 286
311 VITRY Priscilla 03:02:19 SEF F 52 F - 29 SEF 295
312 MAHe Eric Jules 03:02:38 V1M M 87 V1M 255
313 RAKOTONINDRINA Miarivola 03:04:43 SEF F 53 F - 30 SEF 37
314 LEBEAU Marine 03:06:12 SEF F 54 F - 31 SEF 38
315 MOLINIER Maxence 03:12:31 SEM M 114 SEM 171
316 VIRAPINMODELY Mathieu 03:14:17 SEM M 115 SEM 142
317 LAURET CHRISTOPHE 03:18:03 V2M M 47 V2M 243
318 VANWALSCAPPEL ROSINE 03:26:31 SEF F 55 F - 32 SEF 188
319 HOUARD Isabelle 03:26:50 V2F F 56 F - 7 V2F 54
320 LEBON Christophe 03:27:35 SEM M 116 SEM 68
321 DETHES Nicolas 03:28:22 SEM M 117 SEM 725
322 GONTHIER Alain 03:28:22 V1M M 88 V1M 726
323 PAYET FREDERIC 03:39:03 V1M M 89 V1M 247
324 GUIRAUD jean 03:42:59 V3M M 8 V3M 14
325 ROSBAUD Patrice 03:49:40 SEM M 118 SEM 630


ReferencementCe site est listé dans la catégorie Sport : Sports extrêmes Dictionnaire
| Accueil | La Réunion  Vue du ciel | Météo | Cyclones | Volcan | Cirques de Mafate , Cilaos , Salazie | Photos Randonnées | Randonnées Réunion: Randos Espiègle , Courses montagne | Diagonale des Fous |  Marathon des Sables | Voyages Les stats du site | Fonds écran | Plan du site | Blog de runraid | Galerie photos Sport Réunion |